Time;durP1;ratioP1;P1;durP2;ratioP2;P2;SDS_P1;SDS_P2;PMS_P1;PMS_P2;Temp;Humidity;BMP_temperature;BMP_pressure;BME280_temperature;BME280_humidity;BME280_pressure;Samples;Min_cycle;Max_cycle;Signal;HPM_P1;HPM_P2
2021/09/03 00:02:24;;;;;;;13.50;9.77;;;;;;;;;;5054010;28;20988;-66
2021/09/03 00:04:50;;;;;;;13.60;9.87;;;;;;;;;;5051617;28;21000;-66
2021/09/03 00:07:17;;;;;;;15.50;8.90;;;;;;;;;;5053909;28;20449;-66
2021/09/03 00:09:43;;;;;;;13.03;8.63;;;;;;;;;;5053074;28;20894;-66
2021/09/03 00:12:09;;;;;;;13.70;10.10;;;;;;;;;;5053986;28;20488;-66
2021/09/03 00:14:36;;;;;;;13.17;9.10;;;;;;;;;;5052808;28;20398;-66
2021/09/03 00:17:02;;;;;;;10.80;8.63;;;;;;;;;;5051807;28;21107;-66
2021/09/03 00:19:28;;;;;;;12.53;8.70;;;;;;;;;;5051169;28;20937;-66
2021/09/03 00:21:54;;;;;;;14.10;9.97;;;;;;;;;;5033847;28;20450;-66
2021/09/03 00:24:21;;;;;;;14.47;9.20;;;;;;;;;;5033858;28;20958;-66
2021/09/03 00:26:47;;;;;;;11.57;8.93;;;;;;;;;;5052360;28;20799;-66
2021/09/03 00:29:13;;;;;;;12.37;9.67;;;;;;;;;;5053639;28;20849;-66
2021/09/03 00:31:39;;;;;;;15.47;9.23;;;;;;;;;;5052855;28;20446;-66
2021/09/03 00:34:05;;;;;;;15.83;10.03;;;;;;;;;;5053685;28;20763;-66
2021/09/03 00:36:31;;;;;;;13.67;9.77;;;;;;;;;;5035887;28;20422;-67
2021/09/03 00:38:57;;;;;;;11.47;10.00;;;;;;;;;;5033874;28;20758;-66
2021/09/03 00:41:23;;;;;;;24.70;9.93;;;;;;;;;;5048277;28;20511;-66
2021/09/03 00:43:49;;;;;;;13.50;10.23;;;;;;;;;;5053350;28;20763;-66
2021/09/03 00:46:16;;;;;;;17.47;10.30;;;;;;;;;;5050933;28;20806;-66
2021/09/03 00:48:42;;;;;;;13.90;10.47;;;;;;;;;;5053525;28;20485;-66
2021/09/03 00:51:08;;;;;;;14.70;9.70;;;;;;;;;;5052203;28;20449;-66
2021/09/03 00:53:35;;;;;;;15.13;10.90;;;;;;;;;;5053311;28;20425;-66
2021/09/03 00:56:01;;;;;;;16.33;10.63;;;;;;;;;;5052292;28;20513;-66
2021/09/03 00:58:28;;;;;;;11.57;8.90;;;;;;;;;;5053130;28;20409;-66
2021/09/03 01:00:54;;;;;;;17.10;10.10;;;;;;;;;;5052306;28;20429;-66
2021/09/03 01:03:20;;;;;;;13.80;11.13;;;;;;;;;;5053078;28;20540;-66
2021/09/03 01:05:46;;;;;;;16.93;10.20;;;;;;;;;;5052275;28;20516;-66
2021/09/03 01:08:12;;;;;;;14.60;8.73;;;;;;;;;;5053089;28;20476;-66
2021/09/03 01:10:38;;;;;;;17.60;11.10;;;;;;;;;;5043386;28;20827;-66
2021/09/03 01:13:05;;;;;;;14.40;9.43;;;;;;;;;;5036627;28;20423;-66
2021/09/03 01:15:31;;;;;;;16.53;9.70;;;;;;;;;;5034432;28;20406;-66
2021/09/03 01:17:57;;;;;;;14.93;10.87;;;;;;;;;;5053116;28;20404;-66
2021/09/03 01:20:23;;;;;;;18.30;10.37;;;;;;;;;;5051892;28;20414;-66
2021/09/03 01:22:49;;;;;;;13.03;8.80;;;;;;;;;;5053061;28;20789;-66
2021/09/03 01:25:15;;;;;;;18.83;10.50;;;;;;;;;;5053011;28;20436;-66
2021/09/03 01:27:42;;;;;;;17.10;11.17;;;;;;;;;;5052122;28;20497;-66
2021/09/03 01:30:12;;;;;;;14.77;10.03;;;;;;;;;;5051570;28;20545;-66
2021/09/03 01:32:39;;;;;;;14.83;10.43;;;;;;;;;;5052258;28;20462;-66
2021/09/03 01:35:05;;;;;;;16.17;10.60;;;;;;;;;;5053146;28;20394;-66
2021/09/03 01:37:31;;;;;;;16.00;11.07;;;;;;;;;;5052171;28;20843;-66
2021/09/03 01:39:57;;;;;;;16.57;12.13;;;;;;;;;;5051826;28;20433;-66
2021/09/03 01:42:23;;;;;;;16.20;10.80;;;;;;;;;;5036328;28;20828;-66
2021/09/03 01:44:49;;;;;;;15.60;10.63;;;;;;;;;;5032817;28;20402;-66
2021/09/03 01:47:15;;;;;;;15.47;10.30;;;;;;;;;;5047149;28;20465;-66
2021/09/03 01:49:41;;;;;;;16.20;11.90;;;;;;;;;;5034841;28;20434;-66
2021/09/03 01:52:07;;;;;;;14.47;10.53;;;;;;;;;;5045586;28;20462;-66
2021/09/03 01:54:33;;;;;;;18.27;12.20;;;;;;;;;;5054760;28;20406;-67
2021/09/03 01:56:59;;;;;;;14.87;10.30;;;;;;;;;;5055520;28;20444;-66
2021/09/03 01:59:25;;;;;;;17.17;10.83;;;;;;;;;;5056521;28;20410;-66
2021/09/03 02:01:51;;;;;;;14.53;11.10;;;;;;;;;;5044873;28;20450;-66
2021/09/03 02:04:18;;;;;;;15.37;11.10;;;;;;;;;;5036531;28;20406;-67
2021/09/03 02:06:44;;;;;;;17.50;11.30;;;;;;;;;;5036306;28;20911;-66
2021/09/03 02:09:10;;;;;;;16.13;10.20;;;;;;;;;;5036439;28;20888;-66
2021/09/03 02:11:36;;;;;;;18.00;11.57;;;;;;;;;;5036642;28;20809;-66
2021/09/03 02:14:02;;;;;;;21.10;12.27;;;;;;;;;;5036377;28;20426;-67
2021/09/03 02:16:28;;;;;;;16.13;10.80;;;;;;;;;;5038884;28;20961;-66
2021/09/03 02:18:54;;;;;;;19.80;11.50;;;;;;;;;;5055853;28;20460;-67
2021/09/03 02:21:20;;;;;;;13.80;10.13;;;;;;;;;;5055277;28;20445;-66
2021/09/03 02:23:46;;;;;;;19.97;10.97;;;;;;;;;;5056418;28;20414;-67
2021/09/03 02:26:12;;;;;;;16.13;10.80;;;;;;;;;;5054998;28;20470;-66
2021/09/03 02:28:38;;;;;;;20.83;10.73;;;;;;;;;;5055977;28;20450;-67
2021/09/03 02:31:04;;;;;;;15.00;10.50;;;;;;;;;;5054722;28;20427;-66
2021/09/03 02:33:30;;;;;;;17.30;10.80;;;;;;;;;;5037946;28;20780;-66
2021/09/03 02:35:56;;;;;;;16.33;11.37;;;;;;;;;;5054586;28;20402;-66
2021/09/03 02:38:22;;;;;;;15.90;11.70;;;;;;;;;;5055753;28;20410;-67
2021/09/03 02:40:48;;;;;;;21.23;10.73;;;;;;;;;;5050069;28;20817;-66
2021/09/03 02:43:14;;;;;;;19.70;11.77;;;;;;;;;;5055336;28;20433;-66
2021/09/03 02:45:40;;;;;;;15.10;10.00;;;;;;;;;;5040328;28;20516;-66
2021/09/03 02:48:06;;;;;;;18.03;11.40;;;;;;;;;;5052813;28;20921;-66
2021/09/03 02:50:32;;;;;;;17.37;11.10;;;;;;;;;;5055595;28;20421;-67
2021/09/03 02:52:59;;;;;;;17.00;11.50;;;;;;;;;;5053524;28;20473;-66
2021/09/03 02:55:28;;;;;;;22.80;13.00;;;;;;;;;;5055546;28;20394;-66
2021/09/03 02:57:54;;;;;;;17.37;10.93;;;;;;;;;;5053021;28;20426;-66
2021/09/03 03:00:20;;;;;;;16.17;10.33;;;;;;;;;;5055757;28;20879;-66
2021/09/03 03:02:47;;;;;;;19.07;12.37;;;;;;;;;;5043759;28;20455;-66
2021/09/03 03:05:13;;;;;;;21.23;13.20;;;;;;;;;;5034413;28;20414;-66
2021/09/03 03:07:39;;;;;;;18.77;12.40;;;;;;;;;;5034680;28;20512;-66
2021/09/03 03:10:06;;;;;;;21.07;12.10;;;;;;;;;;5035208;28;20411;-67
2021/09/03 03:12:32;;;;;;;21.80;13.63;;;;;;;;;;5043342;28;20437;-66
2021/09/03 03:14:58;;;;;;;15.73;11.70;;;;;;;;;;5055152;28;20477;-67
2021/09/03 03:17:24;;;;;;;17.50;11.27;;;;;;;;;;5054081;28;20429;-66
2021/09/03 03:19:50;;;;;;;20.63;10.57;;;;;;;;;;5047371;28;20433;-66
2021/09/03 03:22:16;;;;;;;16.30;11.67;;;;;;;;;;5053977;28;20969;-66
2021/09/03 03:24:42;;;;;;;16.67;10.50;;;;;;;;;;5045854;28;20521;-66
2021/09/03 03:27:08;;;;;;;18.03;11.80;;;;;;;;;;5053738;28;20462;-66
2021/09/03 03:29:34;;;;;;;20.63;11.40;;;;;;;;;;5054860;28;20787;-66
2021/09/03 03:32:00;;;;;;;20.43;13.50;;;;;;;;;;5051133;28;20517;-66
2021/09/03 03:34:26;;;;;;;18.10;11.83;;;;;;;;;;5034922;28;20395;-66
2021/09/03 03:36:52;;;;;;;17.60;11.50;;;;;;;;;;5034925;28;20403;-66
2021/09/03 03:39:18;;;;;;;21.73;11.57;;;;;;;;;;5034702;28;20406;-67
2021/09/03 03:41:45;;;;;;;16.03;11.80;;;;;;;;;;5034507;28;20430;-66
2021/09/03 03:44:11;;;;;;;28.37;13.80;;;;;;;;;;5034620;28;20446;-66
2021/09/03 03:46:37;;;;;;;18.20;12.20;;;;;;;;;;5034539;28;20529;-66
2021/09/03 03:49:03;;;;;;;16.10;11.40;;;;;;;;;;5054021;28;20410;-66
2021/09/03 03:51:29;;;;;;;18.10;13.10;;;;;;;;;;5054186;28;20929;-67
2021/09/03 03:53:55;;;;;;;23.97;14.30;;;;;;;;;;5035822;28;20430;-66
2021/09/03 03:56:21;;;;;;;19.47;12.90;;;;;;;;;;5034461;28;20757;-66
2021/09/03 03:58:47;;;;;;;22.10;11.70;;;;;;;;;;5037941;28;20433;-66
2021/09/03 04:01:14;;;;;;;19.23;12.57;;;;;;;;;;5034342;28;20426;-66
2021/09/03 04:03:40;;;;;;;19.43;12.67;;;;;;;;;;5049428;28;20437;-66
2021/09/03 04:06:06;;;;;;;16.87;11.47;;;;;;;;;;5054287;28;20452;-66
2021/09/03 04:08:32;;;;;;;18.43;11.87;;;;;;;;;;5052990;28;20970;-66
2021/09/03 04:10:58;;;;;;;18.60;11.83;;;;;;;;;;5054226;28;20464;-66
2021/09/03 04:13:24;;;;;;;15.37;11.17;;;;;;;;;;5053477;28;20784;-66
2021/09/03 04:15:50;;;;;;;16.13;11.17;;;;;;;;;;5054474;28;20436;-66
2021/09/03 04:18:17;;;;;;;17.77;11.30;;;;;;;;;;5052971;28;20437;-66
2021/09/03 04:20:43;;;;;;;24.03;13.10;;;;;;;;;;5036309;28;20407;-66
2021/09/03 04:23:09;;;;;;;16.67;11.53;;;;;;;;;;5052772;28;20881;-66
2021/09/03 04:25:36;;;;;;;16.37;10.87;;;;;;;;;;5038081;28;20488;-66
2021/09/03 04:28:02;;;;;;;18.00;11.77;;;;;;;;;;5042903;28;20798;-66
2021/09/03 04:30:28;;;;;;;14.90;9.73;;;;;;;;;;5052719;28;20402;-66
2021/09/03 04:32:54;;;;;;;14.20;10.67;;;;;;;;;;5045310;28;20451;-66
2021/09/03 04:35:20;;;;;;;16.73;11.13;;;;;;;;;;5033783;28;20835;-66
2021/09/03 04:37:47;;;;;;;18.33;11.53;;;;;;;;;;5034176;28;20430;-66
2021/09/03 04:40:14;;;;;;;13.27;9.70;;;;;;;;;;5042866;28;20426;-66
2021/09/03 04:42:40;;;;;;;16.33;10.40;;;;;;;;;;5052537;28;20518;-66
2021/09/03 04:45:06;;;;;;;16.07;10.37;;;;;;;;;;5052456;28;20426;-66
2021/09/03 04:47:33;;;;;;;14.10;11.23;;;;;;;;;;5053557;28;20962;-66
2021/09/03 04:49:59;;;;;;;15.17;11.73;;;;;;;;;;5052972;28;20425;-66
2021/09/03 04:52:25;;;;;;;17.57;11.70;;;;;;;;;;5053603;28;20449;-66
2021/09/03 04:54:51;;;;;;;16.40;11.10;;;;;;;;;;5052098;28;20426;-66
2021/09/03 04:57:17;;;;;;;21.30;12.70;;;;;;;;;;5053614;28;20417;-66
2021/09/03 04:59:43;;;;;;;17.97;12.23;;;;;;;;;;5046680;28;20927;-66
2021/09/03 05:02:09;;;;;;;17.47;11.60;;;;;;;;;;5033703;28;20771;-66
2021/09/03 05:04:35;;;;;;;23.23;13.50;;;;;;;;;;5037728;28;20434;-66
2021/09/03 05:07:01;;;;;;;18.50;11.90;;;;;;;;;;5053276;28;20445;-66
2021/09/03 05:09:27;;;;;;;19.80;11.60;;;;;;;;;;5052333;28;20432;-66
2021/09/03 05:11:53;;;;;;;16.10;12.10;;;;;;;;;;5052353;28;20489;-66
2021/09/03 05:14:19;;;;;;;16.97;11.23;;;;;;;;;;5052032;28;20787;-66
2021/09/03 05:16:45;;;;;;;18.47;11.33;;;;;;;;;;5039898;28;20433;-66
2021/09/03 05:19:11;;;;;;;18.17;11.17;;;;;;;;;;5033577;28;20399;-66
2021/09/03 05:21:37;;;;;;;25.53;11.03;;;;;;;;;;5052880;28;20421;-66
2021/09/03 05:24:03;;;;;;;18.07;12.30;;;;;;;;;;5052682;28;20394;-66
2021/09/03 05:26:29;;;;;;;18.27;12.80;;;;;;;;;;5033591;28;20423;-66
2021/09/03 05:28:55;;;;;;;23.40;13.50;;;;;;;;;;5033968;28;20474;-67
2021/09/03 05:31:21;;;;;;;17.90;11.93;;;;;;;;;;5052981;28;20481;-66
2021/09/03 05:33:47;;;;;;;25.80;13.83;;;;;;;;;;5057394;28;20394;-66
2021/09/03 05:36:14;;;;;;;19.50;13.23;;;;;;;;;;5039441;28;20970;-66
2021/09/03 05:38:40;;;;;;;21.53;13.27;;;;;;;;;;5040872;28;20918;-66
2021/09/03 05:41:06;;;;;;;17.13;11.00;;;;;;;;;;5056039;28;20440;-66
2021/09/03 05:43:32;;;;;;;17.87;12.93;;;;;;;;;;5055771;28;20421;-66
2021/09/03 05:45:59;;;;;;;18.13;12.37;;;;;;;;;;5056107;28;20483;-66
2021/09/03 05:48:25;;;;;;;18.20;13.40;;;;;;;;;;5056746;28;20456;-66
2021/09/03 05:50:51;;;;;;;20.73;12.47;;;;;;;;;;5055356;28;20430;-67
2021/09/03 05:53:17;;;;;;;20.37;12.50;;;;;;;;;;5056920;28;20430;-66
2021/09/03 05:55:43;;;;;;;20.43;12.60;;;;;;;;;;5044102;28;20431;-66
2021/09/03 05:58:09;;;;;;;19.90;12.53;;;;;;;;;;5036465;28;20513;-66
2021/09/03 06:00:35;;;;;;;21.57;12.70;;;;;;;;;;5046491;28;20508;-66
2021/09/03 06:03:01;;;;;;;22.30;13.53;;;;;;;;;;5056291;28;20425;-66
2021/09/03 06:05:27;;;;;;;19.70;13.20;;;;;;;;;;5046166;28;20907;-67
2021/09/03 06:07:53;;;;;;;18.67;12.60;;;;;;;;;;5036149;28;20966;-66
2021/09/03 06:10:19;;;;;;;19.57;12.70;;;;;;;;;;5043997;28;20422;-66
2021/09/03 06:12:46;;;;;;;16.37;12.33;;;;;;;;;;5056065;28;20508;-66
2021/09/03 06:15:12;;;;;;;16.33;12.00;;;;;;;;;;5055198;28;20527;-66
2021/09/03 06:17:38;;;;;;;15.93;12.30;;;;;;;;;;5054142;28;20421;-66
2021/09/03 06:20:06;;;;;;;21.07;12.50;;;;;;;;;;5055125;28;20422;-65
2021/09/03 06:22:32;;;;;;;17.03;11.83;;;;;;;;;;5055820;28;20910;-66
2021/09/03 06:24:58;;;;;;;16.13;11.43;;;;;;;;;;5054876;28;20811;-66
2021/09/03 06:27:24;;;;;;;18.17;11.37;;;;;;;;;;5055738;28;20596;-66
2021/09/03 06:29:53;;;;;;;14.30;9.73;;;;;;;;;;5052164;28;20425;-66
2021/09/03 06:32:23;;;;;;;18.40;12.13;;;;;;;;;;5035843;28;20513;-66
2021/09/03 06:34:50;;;;;;;15.80;13.30;;;;;;;;;;5038413;28;20433;-66
2021/09/03 06:37:17;;;;;;;16.40;10.73;;;;;;;;;;5055804;28;20412;-66
2021/09/03 06:39:43;;;;;;;16.20;9.90;;;;;;;;;;5054237;28;20414;-66
2021/09/03 06:42:10;;;;;;;15.70;10.93;;;;;;;;;;5055786;28;20433;-65
2021/09/03 06:44:36;;;;;;;16.37;10.97;;;;;;;;;;5047040;28;20423;-66
2021/09/03 06:47:03;;;;;;;14.30;10.63;;;;;;;;;;5055740;28;20422;-65
2021/09/03 06:49:29;;;;;;;15.30;10.60;;;;;;;;;;5055241;28;20459;-66
2021/09/03 06:51:56;;;;;;;14.53;10.80;;;;;;;;;;5048802;28;20461;-66
2021/09/03 06:54:22;;;;;;;15.60;11.20;;;;;;;;;;5052547;28;20402;-66
2021/09/03 06:56:48;;;;;;;13.30;10.60;;;;;;;;;;5052642;28;20982;-65
2021/09/03 06:59:14;;;;;;;13.70;10.43;;;;;;;;;;5052795;28;20402;-66
2021/09/03 07:01:40;;;;;;;21.33;11.47;;;;;;;;;;5053492;28;20452;-66
2021/09/03 07:04:06;;;;;;;15.23;11.17;;;;;;;;;;5054501;28;20416;-65
2021/09/03 07:06:32;;;;;;;13.07;9.07;;;;;;;;;;5054016;28;20417;-65
2021/09/03 07:08:59;;;;;;;14.50;10.23;;;;;;;;;;5054366;28;20539;-66
2021/09/03 07:11:25;;;;;;;20.47;11.30;;;;;;;;;;5052849;28;20753;-66
2021/09/03 07:13:51;;;;;;;15.90;10.17;;;;;;;;;;5054872;28;20442;-66
2021/09/03 07:16:17;;;;;;;12.43;9.40;;;;;;;;;;5053468;28;20430;-66
2021/09/03 07:18:44;;;;;;;14.20;9.30;;;;;;;;;;5054353;28;20417;-66
2021/09/03 07:21:10;;;;;;;14.83;10.30;;;;;;;;;;5053642;28;20421;-66
2021/09/03 07:23:36;;;;;;;16.80;9.97;;;;;;;;;;5053345;28;20425;-66
2021/09/03 07:26:02;;;;;;;11.03;9.10;;;;;;;;;;5035074;28;20430;-66
2021/09/03 07:28:28;;;;;;;11.17;8.37;;;;;;;;;;5053966;28;20972;-65
2021/09/03 07:30:54;;;;;;;12.90;8.97;;;;;;;;;;5053585;28;20717;-66
2021/09/03 07:33:20;;;;;;;12.67;9.10;;;;;;;;;;5054227;28;20434;-66
2021/09/03 07:35:46;;;;;;;17.00;9.23;;;;;;;;;;5053589;28;20418;-66
2021/09/03 07:38:13;;;;;;;12.67;8.20;;;;;;;;;;5054154;28;20411;-66
2021/09/03 07:40:39;;;;;;;11.60;9.13;;;;;;;;;;5053207;28;20516;-66
2021/09/03 07:43:06;;;;;;;12.53;8.90;;;;;;;;;;5054307;28;20482;-66
2021/09/03 07:45:33;;;;;;;13.47;9.20;;;;;;;;;;5053198;28;20429;-66
2021/09/03 07:47:59;;;;;;;10.37;7.90;;;;;;;;;;5054009;28;20603;-65
2021/09/03 07:50:25;;;;;;;12.07;8.40;;;;;;;;;;5050938;28;20752;-65
2021/09/03 07:52:51;;;;;;;15.53;9.13;;;;;;;;;;5033213;28;20453;-65
2021/09/03 07:55:17;;;;;;;19.73;9.20;;;;;;;;;;5036850;28;20988;-65
2021/09/03 07:57:43;;;;;;;12.73;8.00;;;;;;;;;;5049633;28;20425;-66
2021/09/03 08:00:09;;;;;;;19.37;10.30;;;;;;;;;;5051590;28;20409;-66
2021/09/03 08:02:36;;;;;;;9.27;7.70;;;;;;;;;;5053730;28;20430;-65
2021/09/03 08:05:02;;;;;;;11.67;7.00;;;;;;;;;;5052594;28;20406;-66
2021/09/03 08:07:29;;;;;;;9.37;6.70;;;;;;;;;;5053273;28;20516;-65
2021/09/03 08:09:55;;;;;;;13.67;8.53;;;;;;;;;;5053065;28;20398;-65
2021/09/03 08:12:22;;;;;;;11.07;8.43;;;;;;;;;;5053640;28;20491;-66
2021/09/03 08:14:48;;;;;;;13.17;8.03;;;;;;;;;;5054310;28;20477;-66
2021/09/03 08:17:14;;;;;;;9.93;8.27;;;;;;;;;;5034876;28;20426;-66
2021/09/03 08:19:40;;;;;;;12.60;7.17;;;;;;;;;;5033890;28;20403;-66
2021/09/03 08:22:06;;;;;;;11.17;7.83;;;;;;;;;;5050383;28;20490;-66
2021/09/03 08:24:32;;;;;;;8.07;7.23;;;;;;;;;;5035767;28;20406;-66
2021/09/03 08:26:58;;;;;;;9.77;7.20;;;;;;;;;;5052975;28;20452;-67
2021/09/03 08:29:24;;;;;;;10.20;7.77;;;;;;;;;;5053452;28;20485;-67
2021/09/03 08:31:50;;;;;;;11.20;8.23;;;;;;;;;;5038486;28;20450;-66
2021/09/03 08:34:17;;;;;;;10.37;7.50;;;;;;;;;;5033604;28;20806;-67
2021/09/03 08:36:43;;;;;;;9.67;7.30;;;;;;;;;;5046568;28;20559;-66
2021/09/03 08:39:09;;;;;;;15.00;8.67;;;;;;;;;;5052398;28;20441;-66
2021/09/03 08:41:36;;;;;;;10.13;7.40;;;;;;;;;;5052527;28;20451;-66
2021/09/03 08:44:05;;;;;;;12.30;8.17;;;;;;;;;;5053248;28;20402;-67
2021/09/03 08:46:33;;;;;;;9.53;7.20;;;;;;;;;;5034401;28;20429;-67
2021/09/03 08:49:00;;;;;;;11.43;7.60;;;;;;;;;;5053085;28;20513;-67
2021/09/03 08:51:26;;;;;;;13.73;8.43;;;;;;;;;;5051838;28;20461;-66
2021/09/03 08:53:52;;;;;;;10.90;7.60;;;;;;;;;;5052414;28;20405;-66
2021/09/03 08:56:20;;;;;;;11.40;7.43;;;;;;;;;;5051270;28;20456;-66
2021/09/03 08:58:46;;;;;;;10.50;7.67;;;;;;;;;;5053113;28;20421;-66
2021/09/03 09:01:13;;;;;;;9.80;7.80;;;;;;;;;;5043231;28;20433;-67
2021/09/03 09:03:49;;;;;;;10.50;7.33;;;;;;;;;;5045750;28;20772;-66
2021/09/03 09:06:22;;;;;;;10.07;7.03;;;;;;;;;;5042531;28;20426;-67
2021/09/03 09:09:03;;;;;;;12.33;7.93;;;;;;;;;;5032623;28;20458;-67
2021/09/03 09:11:30;;;;;;;9.50;7.40;;;;;;;;;;5032826;28;20447;-67
2021/09/03 09:13:59;;;;;;;9.47;7.23;;;;;;;;;;5048846;28;20409;-67
2021/09/03 09:16:27;;;;;;;10.50;7.40;;;;;;;;;;5050375;28;20793;-66
2021/09/03 09:18:55;;;;;;;12.27;6.87;;;;;;;;;;5052540;28;20406;-67
2021/09/03 09:21:40;;;;;;;10.00;5.93;;;;;;;;;;5051952;28;20474;-66
2021/09/03 09:24:16;;;;;;;9.83;7.70;;;;;;;;;;5052999;28;20409;-67
2021/09/03 09:26:52;;;;;;;10.80;7.50;;;;;;;;;;5051340;28;20440;-66
2021/09/03 09:29:23;;;;;;;8.33;5.90;;;;;;;;;;5052980;28;20779;-66
2021/09/03 09:31:51;;;;;;;9.00;6.93;;;;;;;;;;5052115;28;20450;-66
2021/09/03 09:34:17;;;;;;;10.67;7.60;;;;;;;;;;5052934;28;20448;-67
2021/09/03 09:36:43;;;;;;;11.20;7.50;;;;;;;;;;5041297;28;20425;-66
2021/09/03 09:39:09;;;;;;;13.07;7.00;;;;;;;;;;5032849;28;20462;-66
2021/09/03 09:41:35;;;;;;;9.20;6.87;;;;;;;;;;5034783;28;20534;-66
2021/09/03 09:44:01;;;;;;;9.00;6.43;;;;;;;;;;5032612;28;20398;-66
2021/09/03 09:46:28;;;;;;;8.90;7.30;;;;;;;;;;5048210;28;20509;-68
2021/09/03 09:48:56;;;;;;;11.90;7.30;;;;;;;;;;5052513;28;20450;-66
2021/09/03 09:51:27;;;;;;;9.13;7.60;;;;;;;;;;5043763;28;20512;-67
2021/09/03 09:53:54;;;;;;;10.23;7.47;;;;;;;;;;5051440;28;20421;-67
2021/09/03 09:56:21;;;;;;;8.00;6.53;;;;;;;;;;5051626;28;20471;-67
2021/09/03 09:58:49;;;;;;;9.27;7.00;;;;;;;;;;5053180;28;20455;-67
2021/09/03 10:01:16;;;;;;;10.53;7.57;;;;;;;;;;5050806;28;20430;-67
2021/09/03 10:03:42;;;;;;;15.20;7.17;;;;;;;;;;5052605;28;20407;-67
2021/09/03 10:06:08;;;;;;;10.23;6.90;;;;;;;;;;5046222;28;20426;-67
2021/09/03 10:08:35;;;;;;;15.00;7.43;;;;;;;;;;5032077;28;20529;-66
2021/09/03 10:11:01;;;;;;;9.30;6.37;;;;;;;;;;5035531;28;20426;-67
2021/09/03 10:13:27;;;;;;;9.87;5.83;;;;;;;;;;5046260;28;20421;-67
2021/09/03 10:15:53;;;;;;;10.70;6.27;;;;;;;;;;5053748;28;20436;-66
2021/09/03 10:18:19;;;;;;;11.90;6.50;;;;;;;;;;5056636;28;20398;-67
2021/09/03 10:20:45;;;;;;;11.03;6.67;;;;;;;;;;5054358;28;20402;-66
2021/09/03 10:23:14;;;;;;;9.40;6.20;;;;;;;;;;5036168;28;20431;-67
2021/09/03 10:25:59;;;;;;;8.27;6.60;;;;;;;;;;5035071;28;20403;-66
2021/09/03 10:28:26;;;;;;;8.03;6.43;;;;;;;;;;5042884;28;20445;-66
2021/09/03 10:31:03;;;;;;;10.37;6.80;;;;;;;;;;5036492;28;20416;-66
2021/09/03 10:33:34;;;;;;;8.63;5.87;;;;;;;;;;5056082;28;20402;-66
2021/09/03 10:36:00;;;;;;;7.90;6.30;;;;;;;;;;5055102;28;21080;-66
2021/09/03 10:38:30;;;;;;;8.00;6.13;;;;;;;;;;5055831;28;20401;-67
2021/09/03 10:40:56;;;;;;;8.80;6.40;;;;;;;;;;5055928;28;20397;-67
2021/09/03 10:43:42;;;;;;;6.50;5.27;;;;;;;;;;5053541;28;20487;-67
2021/09/03 10:46:09;;;;;;;8.40;6.50;;;;;;;;;;5053959;28;20425;-66
2021/09/03 10:48:35;;;;;;;8.07;5.47;;;;;;;;;;5048139;28;20457;-67
2021/09/03 10:51:01;;;;;;;8.17;6.10;;;;;;;;;;5054056;28;20529;-66
2021/09/03 10:53:29;;;;;;;9.63;6.17;;;;;;;;;;5055680;28;20778;-67
2021/09/03 10:56:01;;;;;;;11.33;5.80;;;;;;;;;;5054045;28;20410;-66
2021/09/03 10:58:30;;;;;;;10.00;6.80;;;;;;;;;;5055343;28;20413;-67
2021/09/03 11:01:11;;;;;;;11.00;6.43;;;;;;;;;;5052716;28;20544;-66
2021/09/03 11:03:40;;;;;;;7.63;6.00;;;;;;;;;;5055273;28;20408;-67
2021/09/03 11:06:07;;;;;;;7.60;5.80;;;;;;;;;;5053802;28;20447;-67
2021/09/03 11:08:40;;;;;;;9.20;5.87;;;;;;;;;;5055467;28;20450;-67
2021/09/03 11:11:24;;;;;;;7.97;5.97;;;;;;;;;;5052305;28;20413;-67
2021/09/03 11:13:52;;;;;;;10.30;6.20;;;;;;;;;;5047110;28;20787;-67
2021/09/03 11:16:30;;;;;;;8.17;6.33;;;;;;;;;;5053917;28;20444;-66
2021/09/03 11:19:08;;;;;;;7.63;6.37;;;;;;;;;;5054845;28;20925;-67
2021/09/03 11:21:42;;;;;;;9.40;6.97;;;;;;;;;;5051135;28;20456;-67
2021/09/03 11:24:09;;;;;;;7.80;5.80;;;;;;;;;;5054224;28;20744;-67
2021/09/03 11:26:36;;;;;;;9.27;7.43;;;;;;;;;;5052753;28;20432;-66
2021/09/03 11:29:07;;;;;;;8.23;6.07;;;;;;;;;;5054344;28;20857;-67
2021/09/03 11:31:36;;;;;;;9.27;6.30;;;;;;;;;;5053766;28;20445;-67
2021/09/03 11:34:07;;;;;;;8.93;5.97;;;;;;;;;;5054797;28;20401;-67
2021/09/03 11:36:47;;;;;;;8.17;5.90;;;;;;;;;;5053919;28;20495;-67
2021/09/03 11:39:16;;;;;;;8.30;5.90;;;;;;;;;;5054613;28;20894;-67
2021/09/03 11:41:50;;;;;;;10.23;6.00;;;;;;;;;;5053626;28;20450;-67
2021/09/03 11:44:16;;;;;;;6.33;5.17;;;;;;;;;;5054779;28;20410;-67
2021/09/03 11:46:42;;;;;;;7.37;5.87;;;;;;;;;;5053054;28;20476;-67
2021/09/03 11:49:10;;;;;;;9.37;6.27;;;;;;;;;;5054442;28;20481;-67
2021/09/03 11:51:36;;;;;;;9.23;6.77;;;;;;;;;;5053367;28;20484;-67
2021/09/03 11:54:03;;;;;;;7.90;6.60;;;;;;;;;;5053288;28;20883;-66
2021/09/03 11:56:29;;;;;;;10.57;6.50;;;;;;;;;;5052463;28;20732;-67
2021/09/03 11:58:55;;;;;;;10.63;7.93;;;;;;;;;;5054237;28;20874;-66
2021/09/03 12:01:22;;;;;;;12.93;6.37;;;;;;;;;;5053419;28;20460;-67
2021/09/03 12:03:50;;;;;;;8.33;6.70;;;;;;;;;;5054141;28;20402;-66
2021/09/03 12:06:18;;;;;;;12.37;6.13;;;;;;;;;;5052765;28;20414;-66
2021/09/03 12:08:45;;;;;;;9.07;6.33;;;;;;;;;;5053972;28;21003;-67
2021/09/03 12:11:16;;;;;;;7.40;5.63;;;;;;;;;;5053292;28;20869;-66
2021/09/03 12:13:43;;;;;;;8.43;6.00;;;;;;;;;;5033914;28;20883;-67
2021/09/03 12:16:14;;;;;;;6.47;4.77;;;;;;;;;;5033493;28;20405;-66
2021/09/03 12:18:41;;;;;;;7.77;6.20;;;;;;;;;;5054107;28;20413;-67
2021/09/03 12:21:13;;;;;;;6.97;5.40;;;;;;;;;;5052232;28;20413;-66
2021/09/03 12:23:42;;;;;;;10.90;6.13;;;;;;;;;;5050344;28;20515;-67
2021/09/03 12:26:11;;;;;;;7.00;5.23;;;;;;;;;;5053758;28;20424;-67
2021/09/03 12:28:38;;;;;;;11.13;6.27;;;;;;;;;;5052199;28;20499;-67
2021/09/03 12:31:05;;;;;;;7.87;5.87;;;;;;;;;;5053559;28;20509;-67
2021/09/03 12:33:32;;;;;;;6.80;5.40;;;;;;;;;;5050766;28;20420;-67
2021/09/03 12:36:05;;;;;;;8.67;6.17;;;;;;;;;;5050639;28;20429;-66
2021/09/03 12:38:33;;;;;;;6.93;5.90;;;;;;;;;;5034794;28;20435;-67
2021/09/03 12:41:03;;;;;;;7.90;6.00;;;;;;;;;;5050343;28;20516;-67
2021/09/03 12:43:30;;;;;;;7.90;5.63;;;;;;;;;;5053563;28;20508;-67
2021/09/03 12:45:56;;;;;;;7.83;5.70;;;;;;;;;;5052548;28;20946;-67
2021/09/03 12:48:22;;;;;;;9.60;5.80;;;;;;;;;;5053272;28;20508;-67
2021/09/03 12:50:48;;;;;;;9.27;6.30;;;;;;;;;;5052233;28;20422;-68
2021/09/03 12:53:21;;;;;;;6.87;5.80;;;;;;;;;;5053301;28;20872;-67
2021/09/03 12:55:48;;;;;;;8.57;5.97;;;;;;;;;;5051582;28;20421;-65
2021/09/03 12:58:14;;;;;;;7.30;5.80;;;;;;;;;;5036135;28;20442;-67
2021/09/03 13:00:40;;;;;;;7.90;5.90;;;;;;;;;;5050480;28;20428;-67
2021/09/03 13:03:07;;;;;;;7.80;5.90;;;;;;;;;;5051122;28;20886;-67
2021/09/03 13:05:33;;;;;;;7.90;6.23;;;;;;;;;;5049084;28;20428;-67
2021/09/03 13:07:59;;;;;;;12.37;6.33;;;;;;;;;;5053217;28;20449;-67
2021/09/03 13:10:26;;;;;;;6.90;5.00;;;;;;;;;;5052402;28;20815;-67
2021/09/03 13:12:53;;;;;;;6.87;5.33;;;;;;;;;;5053012;28;20432;-67
2021/09/03 13:15:19;;;;;;;8.10;6.47;;;;;;;;;;5053247;28;20774;-67
2021/09/03 13:17:45;;;;;;;13.43;6.13;;;;;;;;;;5053082;28;20406;-67
2021/09/03 13:20:11;;;;;;;6.77;4.83;;;;;;;;;;5052191;28;20430;-67
2021/09/03 13:22:37;;;;;;;6.10;5.00;;;;;;;;;;5050150;28;20560;-66
2021/09/03 13:25:04;;;;;;;8.23;5.87;;;;;;;;;;5048436;28;20471;-65
2021/09/03 13:27:30;;;;;;;9.63;6.60;;;;;;;;;;5049007;28;20467;-65
2021/09/03 13:29:56;;;;;;;7.53;5.43;;;;;;;;;;5048128;28;20434;-65
2021/09/03 13:32:22;;;;;;;8.60;5.63;;;;;;;;;;5048868;28;20779;-65
2021/09/03 13:34:48;;;;;;;8.80;5.63;;;;;;;;;;5048742;28;20421;-66
2021/09/03 13:37:16;;;;;;;7.00;5.10;;;;;;;;;;5049465;28;20480;-67
2021/09/03 13:39:42;;;;;;;5.70;4.50;;;;;;;;;;5048469;28;20429;-69
2021/09/03 13:42:08;;;;;;;7.73;5.10;;;;;;;;;;5050653;28;20442;-67
2021/09/03 13:44:34;;;;;;;8.27;5.20;;;;;;;;;;5050835;28;20430;-67
2021/09/03 13:47:00;;;;;;;7.60;5.63;;;;;;;;;;5050001;28;20767;-67
2021/09/03 13:49:26;;;;;;;9.00;5.60;;;;;;;;;;5051545;28;20429;-67
2021/09/03 13:51:52;;;;;;;6.83;5.30;;;;;;;;;;5056316;28;20444;-67
2021/09/03 13:54:18;;;;;;;5.33;4.83;;;;;;;;;;5055351;28;20416;-67
2021/09/03 13:56:44;;;;;;;8.10;6.00;;;;;;;;;;5055809;28;20426;-67
2021/09/03 14:02:21;;;;;;;8.50;5.67;;;;;;;;;;5005724;28;20422;-67
2021/09/03 14:04:47;;;;;;;6.53;5.03;;;;;;;;;;5040502;28;20939;-67
2021/09/03 14:07:13;;;;;;;7.47;5.60;;;;;;;;;;5056365;28;20393;-67
2021/09/03 14:09:39;;;;;;;6.73;5.03;;;;;;;;;;5034625;28;20427;-67
2021/09/03 14:12:06;;;;;;;8.00;5.50;;;;;;;;;;5054846;28;20941;-67
2021/09/03 14:14:32;;;;;;;8.00;5.00;;;;;;;;;;5055477;28;20538;-67
2021/09/03 14:16:58;;;;;;;8.30;5.40;;;;;;;;;;5056313;28;20393;-67
2021/09/03 14:19:24;;;;;;;6.63;5.30;;;;;;;;;;5055448;28;20424;-67
2021/09/03 14:21:50;;;;;;;8.50;5.47;;;;;;;;;;5053556;28;20492;-67
2021/09/03 14:24:17;;;;;;;6.77;5.10;;;;;;;;;;5055460;28;20405;-66
2021/09/03 14:26:43;;;;;;;9.20;5.50;;;;;;;;;;5056073;28;20480;-67
2021/09/03 14:29:09;;;;;;;8.00;4.70;;;;;;;;;;5056101;28;20925;-67
2021/09/03 14:31:35;;;;;;;8.07;5.37;;;;;;;;;;5044054;28;20449;-66